sensor_id;sensor_type;location;lat;lon;timestamp;temperature;humidity
34279;DHT22;20538;51.528;9.942;2022-11-27T00:00:40;5.80;99.90
34279;DHT22;20538;51.528;9.942;2022-11-27T00:03:06;5.90;99.90
34279;DHT22;20538;51.528;9.942;2022-11-27T00:05:32;5.90;99.90
34279;DHT22;20538;51.528;9.942;2022-11-27T00:07:57;5.90;99.90
34279;DHT22;20538;51.528;9.942;2022-11-27T00:10:23;5.90;99.90
34279;DHT22;20538;51.528;9.942;2022-11-27T00:12:49;5.90;99.90
34279;DHT22;20538;51.528;9.942;2022-11-27T00:15:14;5.90;99.90
34279;DHT22;20538;51.528;9.942;2022-11-27T00:17:40;5.90;99.90
34279;DHT22;20538;51.528;9.942;2022-11-27T00:20:07;5.90;99.90
34279;DHT22;20538;51.528;9.942;2022-11-27T00:22:33;5.90;99.90
34279;DHT22;20538;51.528;9.942;2022-11-27T00:24:58;5.90;99.90
34279;DHT22;20538;51.528;9.942;2022-11-27T00:27:24;5.90;99.90
34279;DHT22;20538;51.528;9.942;2022-11-27T00:29:50;5.90;99.90
34279;DHT22;20538;51.528;9.942;2022-11-27T00:32:16;5.90;99.90
34279;DHT22;20538;51.528;9.942;2022-11-27T00:34:41;5.90;99.90
34279;DHT22;20538;51.528;9.942;2022-11-27T00:37:07;5.90;99.90
34279;DHT22;20538;51.528;9.942;2022-11-27T00:39:33;5.90;99.90
34279;DHT22;20538;51.528;9.942;2022-11-27T00:41:58;5.90;99.90
34279;DHT22;20538;51.528;9.942;2022-11-27T00:44:24;5.90;99.90
34279;DHT22;20538;51.528;9.942;2022-11-27T00:46:50;5.90;99.90
34279;DHT22;20538;51.528;9.942;2022-11-27T00:49:15;5.90;99.90
34279;DHT22;20538;51.528;9.942;2022-11-27T00:51:41;5.90;99.90
34279;DHT22;20538;51.528;9.942;2022-11-27T00:54:07;5.90;99.90
34279;DHT22;20538;51.528;9.942;2022-11-27T00:56:36;5.90;99.90
34279;DHT22;20538;51.528;9.942;2022-11-27T00:59:03;5.90;99.90
34279;DHT22;20538;51.528;9.942;2022-11-27T01:01:35;5.90;99.90
34279;DHT22;20538;51.528;9.942;2022-11-27T01:04:09;5.80;99.90
34279;DHT22;20538;51.528;9.942;2022-11-27T01:06:36;5.80;99.90
34279;DHT22;20538;51.528;9.942;2022-11-27T01:09:02;5.70;99.90
34279;DHT22;20538;51.528;9.942;2022-11-27T01:11:31;5.70;99.90
34279;DHT22;20538;51.528;9.942;2022-11-27T01:13:59;5.70;99.90
34279;DHT22;20538;51.528;9.942;2022-11-27T01:16:26;5.70;99.90
34279;DHT22;20538;51.528;9.942;2022-11-27T01:18:54;5.60;99.90
34279;DHT22;20538;51.528;9.942;2022-11-27T01:21:22;5.50;99.90
34279;DHT22;20538;51.528;9.942;2022-11-27T01:23:48;5.50;99.90
34279;DHT22;20538;51.528;9.942;2022-11-27T01:26:15;5.40;99.90
34279;DHT22;20538;51.528;9.942;2022-11-27T01:28:42;5.30;99.90
34279;DHT22;20538;51.528;9.942;2022-11-27T01:31:12;5.30;99.90
34279;DHT22;20538;51.528;9.942;2022-11-27T01:33:38;5.20;99.90
34279;DHT22;20538;51.528;9.942;2022-11-27T01:36:05;5.20;99.90
34279;DHT22;20538;51.528;9.942;2022-11-27T01:38:32;5.10;99.90
34279;DHT22;20538;51.528;9.942;2022-11-27T01:41:04;5.10;99.90
34279;DHT22;20538;51.528;9.942;2022-11-27T01:43:59;5.10;99.90
34279;DHT22;20538;51.528;9.942;2022-11-27T01:46:25;5.10;99.90
34279;DHT22;20538;51.528;9.942;2022-11-27T01:48:56;5.20;99.90
34279;DHT22;20538;51.528;9.942;2022-11-27T01:51:23;5.30;99.90
34279;DHT22;20538;51.528;9.942;2022-11-27T01:53:50;5.30;99.90
34279;DHT22;20538;51.528;9.942;2022-11-27T01:56:17;5.30;99.90
34279;DHT22;20538;51.528;9.942;2022-11-27T01:58:43;5.30;99.90
34279;DHT22;20538;51.528;9.942;2022-11-27T02:01:09;5.40;99.90
34279;DHT22;20538;51.528;9.942;2022-11-27T02:03:35;5.40;99.90
34279;DHT22;20538;51.528;9.942;2022-11-27T02:06:00;5.40;99.90
34279;DHT22;20538;51.528;9.942;2022-11-27T02:08:26;5.30;99.90
34279;DHT22;20538;51.528;9.942;2022-11-27T02:11:05;5.30;99.90
34279;DHT22;20538;51.528;9.942;2022-11-27T02:13:35;5.30;99.90
34279;DHT22;20538;51.528;9.942;2022-11-27T02:21:53;5.30;99.90
34279;DHT22;20538;51.528;9.942;2022-11-27T02:30:03;5.30;99.90
34279;DHT22;20538;51.528;9.942;2022-11-27T02:32:52;5.30;99.90
34279;DHT22;20538;51.528;9.942;2022-11-27T02:35:29;5.30;99.90
34279;DHT22;20538;51.528;9.942;2022-11-27T02:38:00;5.30;99.90
34279;DHT22;20538;51.528;9.942;2022-11-27T02:40:49;5.30;99.90
34279;DHT22;20538;51.528;9.942;2022-11-27T02:43:24;5.30;99.90
34279;DHT22;20538;51.528;9.942;2022-11-27T02:45:51;5.30;99.90
34279;DHT22;20538;51.528;9.942;2022-11-27T02:48:21;5.30;99.90
34279;DHT22;20538;51.528;9.942;2022-11-27T02:50:48;5.30;99.90
34279;DHT22;20538;51.528;9.942;2022-11-27T02:53:23;5.30;99.90
34279;DHT22;20538;51.528;9.942;2022-11-27T02:55:50;5.30;99.90
34279;DHT22;20538;51.528;9.942;2022-11-27T02:58:20;5.30;99.90
34279;DHT22;20538;51.528;9.942;2022-11-27T03:00:48;5.30;99.90
34279;DHT22;20538;51.528;9.942;2022-11-27T03:03:19;5.30;99.90
34279;DHT22;20538;51.528;9.942;2022-11-27T03:05:48;5.30;99.90
34279;DHT22;20538;51.528;9.942;2022-11-27T03:11:00;5.20;99.90
34279;DHT22;20538;51.528;9.942;2022-11-27T03:13:28;5.20;99.90
34279;DHT22;20538;51.528;9.942;2022-11-27T03:21:36;4.90;99.90
34279;DHT22;20538;51.528;9.942;2022-11-27T03:24:04;4.80;99.90
34279;DHT22;20538;51.528;9.942;2022-11-27T03:26:30;4.70;99.90
34279;DHT22;20538;51.528;9.942;2022-11-27T03:28:57;4.60;99.90
34279;DHT22;20538;51.528;9.942;2022-11-27T03:31:24;4.50;99.90
34279;DHT22;20538;51.528;9.942;2022-11-27T03:33:51;4.50;99.90
34279;DHT22;20538;51.528;9.942;2022-11-27T03:36:19;4.40;99.90
34279;DHT22;20538;51.528;9.942;2022-11-27T03:38:46;4.40;99.90
34279;DHT22;20538;51.528;9.942;2022-11-27T03:59:01;4.20;99.90
34279;DHT22;20538;51.528;9.942;2022-11-27T04:01:29;4.20;99.90
34279;DHT22;20538;51.528;9.942;2022-11-27T04:03:55;4.20;99.90
34279;DHT22;20538;51.528;9.942;2022-11-27T04:06:21;4.20;99.90
34279;DHT22;20538;51.528;9.942;2022-11-27T04:08:47;4.30;99.90
34279;DHT22;20538;51.528;9.942;2022-11-27T04:11:13;4.30;99.90
34279;DHT22;20538;51.528;9.942;2022-11-27T04:13:39;4.20;99.90
34279;DHT22;20538;51.528;9.942;2022-11-27T04:16:05;4.20;99.90
34279;DHT22;20538;51.528;9.942;2022-11-27T04:18:30;4.20;99.90
34279;DHT22;20538;51.528;9.942;2022-11-27T04:20:56;4.20;99.90
34279;DHT22;20538;51.528;9.942;2022-11-27T04:23:22;4.20;99.90
34279;DHT22;20538;51.528;9.942;2022-11-27T04:25:48;4.20;99.90
34279;DHT22;20538;51.528;9.942;2022-11-27T04:28:14;4.10;99.90
34279;DHT22;20538;51.528;9.942;2022-11-27T04:30:42;4.10;99.90
34279;DHT22;20538;51.528;9.942;2022-11-27T04:33:08;4.10;99.90
34279;DHT22;20538;51.528;9.942;2022-11-27T04:35:33;4.00;99.90
34279;DHT22;20538;51.528;9.942;2022-11-27T04:38:00;4.10;99.90
34279;DHT22;20538;51.528;9.942;2022-11-27T04:40:26;4.00;99.90
34279;DHT22;20538;51.528;9.942;2022-11-27T04:42:51;4.00;99.90
34279;DHT22;20538;51.528;9.942;2022-11-27T04:45:17;4.00;99.90
34279;DHT22;20538;51.528;9.942;2022-11-27T04:47:43;4.00;99.90
34279;DHT22;20538;51.528;9.942;2022-11-27T04:50:08;4.00;99.90
34279;DHT22;20538;51.528;9.942;2022-11-27T04:52:35;3.90;99.90
34279;DHT22;20538;51.528;9.942;2022-11-27T04:55:00;3.90;99.90
34279;DHT22;20538;51.528;9.942;2022-11-27T04:57:26;3.90;99.90
34279;DHT22;20538;51.528;9.942;2022-11-27T04:59:52;3.90;99.90
34279;DHT22;20538;51.528;9.942;2022-11-27T05:02:18;3.80;99.90
34279;DHT22;20538;51.528;9.942;2022-11-27T05:04:44;3.80;99.90
34279;DHT22;20538;51.528;9.942;2022-11-27T05:07:09;3.80;99.90
34279;DHT22;20538;51.528;9.942;2022-11-27T05:09:35;3.70;99.90
34279;DHT22;20538;51.528;9.942;2022-11-27T05:12:01;3.70;99.90
34279;DHT22;20538;51.528;9.942;2022-11-27T05:14:26;3.70;99.90
34279;DHT22;20538;51.528;9.942;2022-11-27T05:16:56;3.70;99.90
34279;DHT22;20538;51.528;9.942;2022-11-27T05:19:25;3.80;99.90
34279;DHT22;20538;51.528;9.942;2022-11-27T05:21:52;3.60;99.90
34279;DHT22;20538;51.528;9.942;2022-11-27T05:24:20;3.60;99.90
34279;DHT22;20538;51.528;9.942;2022-11-27T05:26:46;3.60;99.90
34279;DHT22;20538;51.528;9.942;2022-11-27T05:29:12;3.70;99.90
34279;DHT22;20538;51.528;9.942;2022-11-27T05:31:38;3.60;99.90
34279;DHT22;20538;51.528;9.942;2022-11-27T05:34:05;3.60;99.90
34279;DHT22;20538;51.528;9.942;2022-11-27T05:36:31;3.60;99.90
34279;DHT22;20538;51.528;9.942;2022-11-27T05:38:58;3.60;99.90
34279;DHT22;20538;51.528;9.942;2022-11-27T05:41:24;3.60;99.90
34279;DHT22;20538;51.528;9.942;2022-11-27T05:43:50;3.60;99.90
34279;DHT22;20538;51.528;9.942;2022-11-27T05:46:19;3.60;99.90
34279;DHT22;20538;51.528;9.942;2022-11-27T05:48:44;3.60;99.90
34279;DHT22;20538;51.528;9.942;2022-11-27T05:51:10;3.60;99.90
34279;DHT22;20538;51.528;9.942;2022-11-27T05:53:36;3.50;99.90
34279;DHT22;20538;51.528;9.942;2022-11-27T05:56:04;3.50;99.90
34279;DHT22;20538;51.528;9.942;2022-11-27T05:58:31;3.60;99.90
34279;DHT22;20538;51.528;9.942;2022-11-27T06:00:57;3.60;99.90
34279;DHT22;20538;51.528;9.942;2022-11-27T06:03:23;3.60;99.90
34279;DHT22;20538;51.528;9.942;2022-11-27T06:05:48;3.60;99.90
34279;DHT22;20538;51.528;9.942;2022-11-27T06:08:14;3.70;99.90
34279;DHT22;20538;51.528;9.942;2022-11-27T06:10:40;3.80;99.90
34279;DHT22;20538;51.528;9.942;2022-11-27T06:13:05;3.80;99.90
34279;DHT22;20538;51.528;9.942;2022-11-27T06:15:31;3.90;99.90
34279;DHT22;20538;51.528;9.942;2022-11-27T06:17:57;4.00;99.90
34279;DHT22;20538;51.528;9.942;2022-11-27T06:20:23;4.00;99.90
34279;DHT22;20538;51.528;9.942;2022-11-27T06:22:49;4.00;99.90
34279;DHT22;20538;51.528;9.942;2022-11-27T06:25:15;4.00;99.90
34279;DHT22;20538;51.528;9.942;2022-11-27T06:27:41;4.00;99.90
34279;DHT22;20538;51.528;9.942;2022-11-27T06:30:07;4.10;99.90
34279;DHT22;20538;51.528;9.942;2022-11-27T06:32:33;4.00;99.90
34279;DHT22;20538;51.528;9.942;2022-11-27T06:34:59;4.00;99.90
34279;DHT22;20538;51.528;9.942;2022-11-27T06:37:25;4.00;99.90
34279;DHT22;20538;51.528;9.942;2022-11-27T06:39:51;3.90;99.90
34279;DHT22;20538;51.528;9.942;2022-11-27T06:42:17;4.00;99.90
34279;DHT22;20538;51.528;9.942;2022-11-27T06:44:42;4.10;99.90
34279;DHT22;20538;51.528;9.942;2022-11-27T06:47:08;4.10;99.90
34279;DHT22;20538;51.528;9.942;2022-11-27T06:49:34;4.20;99.90
34279;DHT22;20538;51.528;9.942;2022-11-27T06:52:00;4.20;99.90
34279;DHT22;20538;51.528;9.942;2022-11-27T06:54:25;4.30;99.90
34279;DHT22;20538;51.528;9.942;2022-11-27T06:56:51;4.30;99.90
34279;DHT22;20538;51.528;9.942;2022-11-27T06:59:17;4.40;99.90
34279;DHT22;20538;51.528;9.942;2022-11-27T07:01:44;4.40;99.90
34279;DHT22;20538;51.528;9.942;2022-11-27T07:04:12;4.30;99.90
34279;DHT22;20538;51.528;9.942;2022-11-27T07:06:38;4.30;99.90
34279;DHT22;20538;51.528;9.942;2022-11-27T07:09:04;4.20;99.90
34279;DHT22;20538;51.528;9.942;2022-11-27T07:11:31;4.10;99.90
34279;DHT22;20538;51.528;9.942;2022-11-27T07:13:59;4.10;99.90
34279;DHT22;20538;51.528;9.942;2022-11-27T07:16:26;4.00;99.90
34279;DHT22;20538;51.528;9.942;2022-11-27T07:18:55;4.00;99.90
34279;DHT22;20538;51.528;9.942;2022-11-27T07:21:21;4.00;99.90
34279;DHT22;20538;51.528;9.942;2022-11-27T07:23:47;3.90;99.90
34279;DHT22;20538;51.528;9.942;2022-11-27T07:26:14;3.90;99.90
34279;DHT22;20538;51.528;9.942;2022-11-27T07:28:41;3.80;99.90
34279;DHT22;20538;51.528;9.942;2022-11-27T07:31:16;3.90;99.90
34279;DHT22;20538;51.528;9.942;2022-11-27T07:33:42;3.90;99.90
34279;DHT22;20538;51.528;9.942;2022-11-27T07:36:15;3.90;99.90
34279;DHT22;20538;51.528;9.942;2022-11-27T07:38:42;3.90;99.90
34279;DHT22;20538;51.528;9.942;2022-11-27T07:41:09;3.90;99.90
34279;DHT22;20538;51.528;9.942;2022-11-27T07:43:36;3.90;99.90
34279;DHT22;20538;51.528;9.942;2022-11-27T07:46:17;4.00;99.90
34279;DHT22;20538;51.528;9.942;2022-11-27T07:48:43;4.00;99.90
34279;DHT22;20538;51.528;9.942;2022-11-27T07:51:11;4.00;99.90
34279;DHT22;20538;51.528;9.942;2022-11-27T07:53:38;4.10;99.90
34279;DHT22;20538;51.528;9.942;2022-11-27T07:56:05;4.10;99.90
34279;DHT22;20538;51.528;9.942;2022-11-27T07:58:30;4.10;99.90
34279;DHT22;20538;51.528;9.942;2022-11-27T08:00:56;4.20;99.90
34279;DHT22;20538;51.528;9.942;2022-11-27T08:03:22;4.20;99.90
34279;DHT22;20538;51.528;9.942;2022-11-27T08:05:48;4.30;99.90
34279;DHT22;20538;51.528;9.942;2022-11-27T08:08:13;4.30;99.90
34279;DHT22;20538;51.528;9.942;2022-11-27T08:10:39;4.30;99.90
34279;DHT22;20538;51.528;9.942;2022-11-27T08:13:05;4.40;99.90
34279;DHT22;20538;51.528;9.942;2022-11-27T08:15:32;4.40;99.90
34279;DHT22;20538;51.528;9.942;2022-11-27T08:17:57;4.50;99.90
34279;DHT22;20538;51.528;9.942;2022-11-27T08:20:23;4.50;99.90
34279;DHT22;20538;51.528;9.942;2022-11-27T08:22:49;4.60;99.90
34279;DHT22;20538;51.528;9.942;2022-11-27T08:25:15;4.60;99.90
34279;DHT22;20538;51.528;9.942;2022-11-27T08:27:41;4.70;99.90
34279;DHT22;20538;51.528;9.942;2022-11-27T08:30:07;4.70;99.90
34279;DHT22;20538;51.528;9.942;2022-11-27T08:32:33;4.80;99.90
34279;DHT22;20538;51.528;9.942;2022-11-27T08:35:02;5.10;99.90
34279;DHT22;20538;51.528;9.942;2022-11-27T08:37:28;5.40;99.90
34279;DHT22;20538;51.528;9.942;2022-11-27T08:39:53;6.20;99.90
34279;DHT22;20538;51.528;9.942;2022-11-27T08:42:19;7.10;99.90
34279;DHT22;20538;51.528;9.942;2022-11-27T08:44:44;6.60;99.90
34279;DHT22;20538;51.528;9.942;2022-11-27T08:47:10;6.90;99.90
34279;DHT22;20538;51.528;9.942;2022-11-27T08:49:36;6.60;99.90
34279;DHT22;20538;51.528;9.942;2022-11-27T08:52:01;6.30;99.90
34279;DHT22;20538;51.528;9.942;2022-11-27T08:54:27;6.50;99.90
34279;DHT22;20538;51.528;9.942;2022-11-27T08:56:53;6.60;99.90
34279;DHT22;20538;51.528;9.942;2022-11-27T08:59:18;6.50;99.90
34279;DHT22;20538;51.528;9.942;2022-11-27T09:01:44;6.40;99.90
34279;DHT22;20538;51.528;9.942;2022-11-27T09:04:09;6.20;99.90
34279;DHT22;20538;51.528;9.942;2022-11-27T09:06:35;6.10;99.90
34279;DHT22;20538;51.528;9.942;2022-11-27T09:09:03;6.10;99.90
34279;DHT22;20538;51.528;9.942;2022-11-27T09:11:30;6.00;99.90
34279;DHT22;20538;51.528;9.942;2022-11-27T09:14:01;6.00;99.90
34279;DHT22;20538;51.528;9.942;2022-11-27T09:16:27;6.00;99.90
34279;DHT22;20538;51.528;9.942;2022-11-27T09:18:54;6.00;99.90
34279;DHT22;20538;51.528;9.942;2022-11-27T09:21:21;6.00;99.90
34279;DHT22;20538;51.528;9.942;2022-11-27T09:23:51;6.10;99.90
34279;DHT22;20538;51.528;9.942;2022-11-27T09:26:16;6.20;99.90
34279;DHT22;20538;51.528;9.942;2022-11-27T09:28:43;6.40;99.90
34279;DHT22;20538;51.528;9.942;2022-11-27T09:31:12;6.40;99.90
34279;DHT22;20538;51.528;9.942;2022-11-27T09:33:38;6.50;99.90
34279;DHT22;20538;51.528;9.942;2022-11-27T09:36:09;6.70;99.90
34279;DHT22;20538;51.528;9.942;2022-11-27T09:38:36;6.80;99.90
34279;DHT22;20538;51.528;9.942;2022-11-27T09:41:40;6.80;99.90
34279;DHT22;20538;51.528;9.942;2022-11-27T09:46:52;6.70;99.90
34279;DHT22;20538;51.528;9.942;2022-11-27T09:49:30;6.60;99.90
34279;DHT22;20538;51.528;9.942;2022-11-27T09:52:13;6.50;99.90
34279;DHT22;20538;51.528;9.942;2022-11-27T09:54:48;6.50;99.90
34279;DHT22;20538;51.528;9.942;2022-11-27T09:57:15;6.50;99.90
34279;DHT22;20538;51.528;9.942;2022-11-27T09:59:50;6.50;99.90
34279;DHT22;20538;51.528;9.942;2022-11-27T10:02:24;6.50;99.90
34279;DHT22;20538;51.528;9.942;2022-11-27T10:04:52;6.70;99.90
34279;DHT22;20538;51.528;9.942;2022-11-27T10:12:57;6.80;99.90
34279;DHT22;20538;51.528;9.942;2022-11-27T10:15:47;6.80;99.90
34279;DHT22;20538;51.528;9.942;2022-11-27T10:18:36;6.90;99.90
34279;DHT22;20538;51.528;9.942;2022-11-27T10:21:17;6.90;99.90
34279;DHT22;20538;51.528;9.942;2022-11-27T10:24:01;6.90;99.90
34279;DHT22;20538;51.528;9.942;2022-11-27T10:26:57;7.00;99.90
34279;DHT22;20538;51.528;9.942;2022-11-27T10:32:12;7.30;99.90
34279;DHT22;20538;51.528;9.942;2022-11-27T10:34:49;7.20;99.90
34279;DHT22;20538;51.528;9.942;2022-11-27T10:37:32;7.20;99.90
34279;DHT22;20538;51.528;9.942;2022-11-27T10:42:41;7.20;99.90
34279;DHT22;20538;51.528;9.942;2022-11-27T10:47:53;7.30;99.90
34279;DHT22;20538;51.528;9.942;2022-11-27T10:50:19;7.30;99.90
34279;DHT22;20538;51.528;9.942;2022-11-27T10:53:17;7.40;99.90
34279;DHT22;20538;51.528;9.942;2022-11-27T10:58:54;7.50;99.90
34279;DHT22;20538;51.528;9.942;2022-11-27T11:01:23;7.60;99.90
34279;DHT22;20538;51.528;9.942;2022-11-27T11:03:50;7.60;99.90
34279;DHT22;20538;51.528;9.942;2022-11-27T11:06:21;7.60;99.90
34279;DHT22;20538;51.528;9.942;2022-11-27T11:08:59;7.50;99.90
34279;DHT22;20538;51.528;9.942;2022-11-27T11:11:26;7.60;99.90
34279;DHT22;20538;51.528;9.942;2022-11-27T11:13:52;7.50;99.90
34279;DHT22;20538;51.528;9.942;2022-11-27T11:16:25;7.60;99.90
34279;DHT22;20538;51.528;9.942;2022-11-27T11:18:55;7.60;99.90
34279;DHT22;20538;51.528;9.942;2022-11-27T11:21:31;7.60;99.90
34279;DHT22;20538;51.528;9.942;2022-11-27T11:24:04;7.70;99.90
34279;DHT22;20538;51.528;9.942;2022-11-27T11:26:49;7.70;99.90
34279;DHT22;20538;51.528;9.942;2022-11-27T11:34:33;7.80;99.90
34279;DHT22;20538;51.528;9.942;2022-11-27T11:37:05;7.80;99.90
34279;DHT22;20538;51.528;9.942;2022-11-27T11:39:37;7.80;99.90
34279;DHT22;20538;51.528;9.942;2022-11-27T11:42:09;7.80;99.90
34279;DHT22;20538;51.528;9.942;2022-11-27T11:44:39;7.90;99.90
34279;DHT22;20538;51.528;9.942;2022-11-27T11:47:04;7.90;99.90
34279;DHT22;20538;51.528;9.942;2022-11-27T11:49:33;7.90;99.90
34279;DHT22;20538;51.528;9.942;2022-11-27T11:55:18;7.90;99.90
34279;DHT22;20538;51.528;9.942;2022-11-27T11:58:02;7.80;99.90
34279;DHT22;20538;51.528;9.942;2022-11-27T12:00:48;7.70;99.90
34279;DHT22;20538;51.528;9.942;2022-11-27T12:08:52;7.70;99.90
34279;DHT22;20538;51.528;9.942;2022-11-27T12:14:23;7.80;99.90
34279;DHT22;20538;51.528;9.942;2022-11-27T12:23:16;7.90;99.90
34279;DHT22;20538;51.528;9.942;2022-11-27T12:29:06;7.90;99.90
34279;DHT22;20538;51.528;9.942;2022-11-27T12:32:01;7.90;99.90
34279;DHT22;20538;51.528;9.942;2022-11-27T12:41:12;7.90;99.90
34279;DHT22;20538;51.528;9.942;2022-11-27T12:43:26;7.90;99.90
34279;DHT22;20538;51.528;9.942;2022-11-27T12:46:23;7.90;99.90
34279;DHT22;20538;51.528;9.942;2022-11-27T12:54:53;8.00;99.90
34279;DHT22;20538;51.528;9.942;2022-11-27T12:57:20;8.00;99.90
34279;DHT22;20538;51.528;9.942;2022-11-27T12:59:53;8.00;99.90
34279;DHT22;20538;51.528;9.942;2022-11-27T13:05:59;8.00;99.90
34279;DHT22;20538;51.528;9.942;2022-11-27T13:11:05;8.00;99.90
34279;DHT22;20538;51.528;9.942;2022-11-27T13:13:46;8.00;99.90
34279;DHT22;20538;51.528;9.942;2022-11-27T13:16:32;7.90;99.90
34279;DHT22;20538;51.528;9.942;2022-11-27T13:19:20;7.90;99.90
34279;DHT22;20538;51.528;9.942;2022-11-27T13:21:48;7.90;99.90
34279;DHT22;20538;51.528;9.942;2022-11-27T13:24:14;7.90;99.90
34279;DHT22;20538;51.528;9.942;2022-11-27T13:27:20;7.90;99.90
34279;DHT22;20538;51.528;9.942;2022-11-27T13:29:58;8.00;99.90
34279;DHT22;20538;51.528;9.942;2022-11-27T13:32:30;8.00;99.90
34279;DHT22;20538;51.528;9.942;2022-11-27T13:35:01;7.90;99.90
34279;DHT22;20538;51.528;9.942;2022-11-27T13:37:36;7.90;99.90
34279;DHT22;20538;51.528;9.942;2022-11-27T13:42:42;7.80;99.90
34279;DHT22;20538;51.528;9.942;2022-11-27T13:45:19;7.80;99.90
34279;DHT22;20538;51.528;9.942;2022-11-27T13:47:46;7.70;99.90
34279;DHT22;20538;51.528;9.942;2022-11-27T13:50:15;7.70;99.90
34279;DHT22;20538;51.528;9.942;2022-11-27T13:53:02;7.60;99.90
34279;DHT22;20538;51.528;9.942;2022-11-27T13:55:34;7.60;99.90
34279;DHT22;20538;51.528;9.942;2022-11-27T13:58:02;7.50;99.90
34279;DHT22;20538;51.528;9.942;2022-11-27T14:00:36;7.50;99.90
34279;DHT22;20538;51.528;9.942;2022-11-27T14:03:03;7.50;99.90
34279;DHT22;20538;51.528;9.942;2022-11-27T14:08:15;7.40;99.90
34279;DHT22;20538;51.528;9.942;2022-11-27T14:10:53;7.40;99.90
34279;DHT22;20538;51.528;9.942;2022-11-27T14:13:20;7.40;99.90
34279;DHT22;20538;51.528;9.942;2022-11-27T14:15:57;7.30;99.90
34279;DHT22;20538;51.528;9.942;2022-11-27T14:18:26;7.30;99.90
34279;DHT22;20538;51.528;9.942;2022-11-27T14:21:02;7.20;99.90
34279;DHT22;20538;51.528;9.942;2022-11-27T14:23:33;7.20;99.90
34279;DHT22;20538;51.528;9.942;2022-11-27T14:28:40;7.10;99.90
34279;DHT22;20538;51.528;9.942;2022-11-27T14:31:21;7.10;99.90
34279;DHT22;20538;51.528;9.942;2022-11-27T14:33:50;7.20;99.90
34279;DHT22;20538;51.528;9.942;2022-11-27T14:36:27;7.20;99.90
34279;DHT22;20538;51.528;9.942;2022-11-27T14:39:00;7.20;99.90
34279;DHT22;20538;51.528;9.942;2022-11-27T14:41:27;7.20;99.90
34279;DHT22;20538;51.528;9.942;2022-11-27T14:44:00;7.20;99.90
34279;DHT22;20538;51.528;9.942;2022-11-27T14:46:26;7.10;99.90
34279;DHT22;20538;51.528;9.942;2022-11-27T14:48:53;7.10;99.90
34279;DHT22;20538;51.528;9.942;2022-11-27T14:51:27;7.10;99.90
34279;DHT22;20538;51.528;9.942;2022-11-27T14:53:57;7.00;99.90
34279;DHT22;20538;51.528;9.942;2022-11-27T14:56:29;7.00;99.90
34279;DHT22;20538;51.528;9.942;2022-11-27T14:58:57;7.00;99.90
34279;DHT22;20538;51.528;9.942;2022-11-27T15:01:30;6.90;99.90
34279;DHT22;20538;51.528;9.942;2022-11-27T15:04:01;6.80;99.90
34279;DHT22;20538;51.528;9.942;2022-11-27T15:06:43;6.80;99.90
34279;DHT22;20538;51.528;9.942;2022-11-27T15:09:23;6.80;99.90
34279;DHT22;20538;51.528;9.942;2022-11-27T15:11:55;6.80;99.90
34279;DHT22;20538;51.528;9.942;2022-11-27T15:14:23;6.80;99.90
34279;DHT22;20538;51.528;9.942;2022-11-27T15:16:51;6.70;99.90
34279;DHT22;20538;51.528;9.942;2022-11-27T15:19:30;6.70;99.90
34279;DHT22;20538;51.528;9.942;2022-11-27T15:21:56;6.70;99.90
34279;DHT22;20538;51.528;9.942;2022-11-27T15:24:36;6.70;99.90
34279;DHT22;20538;51.528;9.942;2022-11-27T15:27:19;6.70;99.90
34279;DHT22;20538;51.528;9.942;2022-11-27T15:32:18;6.70;99.90
34279;DHT22;20538;51.528;9.942;2022-11-27T15:34:45;6.70;99.90
34279;DHT22;20538;51.528;9.942;2022-11-27T15:39:59;6.70;99.90
34279;DHT22;20538;51.528;9.942;2022-11-27T15:42:26;6.80;99.90
34279;DHT22;20538;51.528;9.942;2022-11-27T15:44:56;6.80;99.90
34279;DHT22;20538;51.528;9.942;2022-11-27T15:47:26;6.90;99.90
34279;DHT22;20538;51.528;9.942;2022-11-27T15:49:52;6.90;99.90
34279;DHT22;20538;51.528;9.942;2022-11-27T15:52:18;6.80;99.90
34279;DHT22;20538;51.528;9.942;2022-11-27T15:54:44;6.90;99.90
34279;DHT22;20538;51.528;9.942;2022-11-27T15:57:10;6.90;99.90
34279;DHT22;20538;51.528;9.942;2022-11-27T15:59:35;6.90;99.90
34279;DHT22;20538;51.528;9.942;2022-11-27T16:02:01;6.90;99.90
34279;DHT22;20538;51.528;9.942;2022-11-27T16:04:27;6.90;99.90
34279;DHT22;20538;51.528;9.942;2022-11-27T16:06:53;6.90;99.90
34279;DHT22;20538;51.528;9.942;2022-11-27T16:09:18;6.80;99.90
34279;DHT22;20538;51.528;9.942;2022-11-27T16:11:44;6.80;99.90
34279;DHT22;20538;51.528;9.942;2022-11-27T16:14:10;6.80;99.90
34279;DHT22;20538;51.528;9.942;2022-11-27T16:16:36;6.90;99.90
34279;DHT22;20538;51.528;9.942;2022-11-27T16:19:03;6.80;99.90
34279;DHT22;20538;51.528;9.942;2022-11-27T16:21:31;6.80;99.90
34279;DHT22;20538;51.528;9.942;2022-11-27T16:24:02;6.70;99.90
34279;DHT22;20538;51.528;9.942;2022-11-27T16:26:28;6.70;99.90
34279;DHT22;20538;51.528;9.942;2022-11-27T16:28:54;6.80;99.90
34279;DHT22;20538;51.528;9.942;2022-11-27T16:31:20;6.70;99.90
34279;DHT22;20538;51.528;9.942;2022-11-27T16:33:47;6.70;99.90
34279;DHT22;20538;51.528;9.942;2022-11-27T16:36:14;6.70;99.90
34279;DHT22;20538;51.528;9.942;2022-11-27T16:38:41;6.70;99.90
34279;DHT22;20538;51.528;9.942;2022-11-27T16:41:09;6.70;99.90
34279;DHT22;20538;51.528;9.942;2022-11-27T16:43:38;6.70;99.90
34279;DHT22;20538;51.528;9.942;2022-11-27T16:46:11;6.70;99.90
34279;DHT22;20538;51.528;9.942;2022-11-27T16:48:38;6.70;99.90
34279;DHT22;20538;51.528;9.942;2022-11-27T16:51:07;6.70;99.90
34279;DHT22;20538;51.528;9.942;2022-11-27T16:53:36;6.70;99.90
34279;DHT22;20538;51.528;9.942;2022-11-27T16:56:02;6.70;99.90
34279;DHT22;20538;51.528;9.942;2022-11-27T16:58:35;6.70;99.90
34279;DHT22;20538;51.528;9.942;2022-11-27T17:01:06;6.70;99.90
34279;DHT22;20538;51.528;9.942;2022-11-27T17:03:31;6.70;99.90
34279;DHT22;20538;51.528;9.942;2022-11-27T17:05:57;6.70;99.90
34279;DHT22;20538;51.528;9.942;2022-11-27T17:08:23;6.70;99.90
34279;DHT22;20538;51.528;9.942;2022-11-27T17:10:49;6.70;99.90
34279;DHT22;20538;51.528;9.942;2022-11-27T17:13:15;6.70;99.90
34279;DHT22;20538;51.528;9.942;2022-11-27T17:15:40;6.70;99.90
34279;DHT22;20538;51.528;9.942;2022-11-27T17:18:06;6.60;99.90
34279;DHT22;20538;51.528;9.942;2022-11-27T17:20:32;6.60;99.90
34279;DHT22;20538;51.528;9.942;2022-11-27T17:22:57;6.60;99.90
34279;DHT22;20538;51.528;9.942;2022-11-27T17:25:23;6.60;99.90
34279;DHT22;20538;51.528;9.942;2022-11-27T17:27:50;6.60;99.90
34279;DHT22;20538;51.528;9.942;2022-11-27T17:30:18;6.60;99.90
34279;DHT22;20538;51.528;9.942;2022-11-27T17:32:43;6.60;99.90
34279;DHT22;20538;51.528;9.942;2022-11-27T17:35:09;6.60;99.90
34279;DHT22;20538;51.528;9.942;2022-11-27T17:37:34;6.50;99.90
34279;DHT22;20538;51.528;9.942;2022-11-27T17:40:00;6.50;99.90
34279;DHT22;20538;51.528;9.942;2022-11-27T17:42:26;6.60;99.90
34279;DHT22;20538;51.528;9.942;2022-11-27T17:44:52;6.60;99.90
34279;DHT22;20538;51.528;9.942;2022-11-27T17:47:17;6.50;99.90
34279;DHT22;20538;51.528;9.942;2022-11-27T17:49:43;6.60;99.90
34279;DHT22;20538;51.528;9.942;2022-11-27T17:52:08;6.50;99.90